Time;durP1;ratioP1;P1;durP2;ratioP2;P2;SDS_P1;SDS_P2;PMS_P1;PMS_P2;Temp;Humidity;BMP_temperature;BMP_pressure;BME280_temperature;BME280_humidity;BME280_pressure;Samples;Min_cycle;Max_cycle;Signal;HPM_P1;HPM_P2
2022/01/27 00:02:22;;;;;;;41.90;19.27;;;2.80;1.00;;;;;;5073820;28;20956;-59
2022/01/27 00:05:02;;;;;;;40.50;15.10;;;2.80;1.00;;;;;;5073976;28;20439;-60
2022/01/27 00:07:29;;;;;;;41.97;19.27;;;2.80;1.00;;;;;;5073532;28;20452;-60
2022/01/27 00:10:10;;;;;;;40.83;16.20;;;2.80;1.00;;;;;;5073845;28;20501;-60
2022/01/27 00:12:38;;;;;;;41.83;18.40;;;2.80;1.00;;;;;;5073697;28;20592;-61
2022/01/27 00:15:10;;;;;;;55.20;19.50;;;2.80;1.00;;;;;;5073465;28;20614;-61
2022/01/27 00:17:44;;;;;;;47.50;17.97;;;2.70;1.00;;;;;;5073289;28;20946;-61
2022/01/27 00:20:12;;;;;;;45.17;18.70;;;2.70;1.00;;;;;;5073811;28;20801;-60
2022/01/27 00:22:39;;;;;;;43.13;18.87;;;2.70;1.00;;;;;;5073477;28;20520;-60
2022/01/27 00:25:08;;;;;;;39.43;16.60;;;2.70;1.00;;;;;;5073518;28;20447;-60
2022/01/27 00:27:35;;;;;;;38.57;18.43;;;2.70;1.00;;;;;;5073122;28;20457;-60
2022/01/27 00:30:03;;;;;;;42.53;18.27;;;2.70;1.00;;;;;;5073249;28;20451;-61
2022/01/27 00:32:30;;;;;;;43.70;17.87;;;2.80;1.00;;;;;;5073390;28;20570;-61
2022/01/27 00:34:57;;;;;;;34.80;17.70;;;2.70;1.00;;;;;;5073157;28;20475;-60
2022/01/27 00:37:24;;;;;;;34.97;16.13;;;2.70;1.00;;;;;;5073068;28;20451;-60
2022/01/27 00:39:51;;;;;;;29.57;14.47;;;2.60;1.00;;;;;;5073123;28;20447;-60
2022/01/27 00:42:19;;;;;;;29.57;15.20;;;2.70;1.00;;;;;;5072557;28;20475;-60
2022/01/27 00:44:45;;;;;;;36.13;15.53;;;2.70;1.00;;;;;;5073174;28;20448;-60
2022/01/27 00:47:12;;;;;;;36.93;17.47;;;2.60;1.00;;;;;;5073120;28;20447;-60
2022/01/27 00:49:39;;;;;;;36.63;16.57;;;2.60;1.00;;;;;;5072768;28;20455;-60
2022/01/27 00:52:10;;;;;;;36.37;15.53;;;2.60;1.00;;;;;;5072840;28;20494;-59
2022/01/27 00:54:37;;;;;;;35.57;15.60;;;2.60;1.00;;;;;;5072706;28;20483;-59
2022/01/27 00:57:09;;;;;;;35.03;16.47;;;2.50;1.00;;;;;;5072495;28;20458;-60
2022/01/27 00:59:47;;;;;;;32.27;15.17;;;2.50;1.00;;;;;;5072927;28;20455;-59
2022/01/27 01:02:28;;;;;;;34.80;17.17;;;2.50;1.00;;;;;;5073002;28;20470;-64
2022/01/27 01:05:07;;;;;;;38.13;18.63;;;2.50;1.00;;;;;;5072818;28;20447;-59
2022/01/27 01:07:38;;;;;;;37.23;17.40;;;2.50;1.00;;;;;;5072780;28;20484;-62
2022/01/27 01:15:34;;;;;;;35.67;17.70;;;2.50;1.00;;;;;;5080087;28;20478;-60
2022/01/27 01:18:08;;;;;;;39.33;19.07;;;2.40;1.00;;;;;;5082314;28;20937;-60
2022/01/27 01:31:43;;;;;;;44.43;19.27;;;2.40;1.00;;;;;;5072101;28;20466;-60
2022/01/27 01:34:18;;;;;;;46.77;19.37;;;2.40;1.00;;;;;;5072021;28;20556;-60
2022/01/27 01:36:54;;;;;;;33.90;17.50;;;2.40;1.00;;;;;;5071511;28;20906;-60
2022/01/27 01:39:22;;;;;;;39.87;19.13;;;2.40;1.00;;;;;;5071992;28;20970;-60
2022/01/27 01:41:49;;;;;;;43.37;18.53;;;2.40;1.00;;;;;;5071951;28;20471;-59
2022/01/27 01:44:15;;;;;;;39.20;18.67;;;2.40;1.00;;;;;;5072039;28;20451;-62
2022/01/27 01:46:43;;;;;;;43.37;20.57;;;2.40;1.00;;;;;;5071768;28;20443;-61
2022/01/27 01:49:10;;;;;;;35.40;17.63;;;2.40;1.00;;;;;;5071851;28;20886;-62
2022/01/27 01:51:39;;;;;;;39.93;16.40;;;2.40;1.00;;;;;;5071906;28;20471;-60
2022/01/27 01:54:07;;;;;;;37.83;17.63;;;2.40;1.00;;;;;;5071683;28;20443;-60
2022/01/27 01:56:35;;;;;;;34.17;15.90;;;2.30;1.00;;;;;;5071477;28;20488;-60
2022/01/27 01:59:01;;;;;;;33.67;16.87;;;2.30;1.00;;;;;;5072016;28;20447;-60
2022/01/27 02:01:28;;;;;;;34.90;16.97;;;2.30;1.00;;;;;;5071527;28;20478;-59
2022/01/27 02:03:59;;;;;;;36.70;17.67;;;2.30;1.00;;;;;;5071923;28;20439;-61
2022/01/27 02:06:31;;;;;;;39.73;19.03;;;2.30;1.00;;;;;;5071769;28;20546;-61
2022/01/27 02:19:56;;;;;;;37.13;17.20;;;2.30;1.00;;;;;;5071721;28;20422;-61
2022/01/27 02:22:23;;;;;;;32.80;15.43;;;2.30;1.00;;;;;;5071578;28;20984;-60
2022/01/27 02:24:51;;;;;;;37.20;17.23;;;2.30;1.00;;;;;;5071276;28;20937;-60
2022/01/27 02:27:20;;;;;;;37.00;15.80;;;2.40;1.00;;;;;;5071658;28;20840;-61
2022/01/27 02:29:47;;;;;;;40.60;18.27;;;2.40;1.00;;;;;;5071526;28;20443;-60
2022/01/27 02:32:15;;;;;;;37.07;17.10;;;2.30;1.00;;;;;;5071555;28;20459;-61
2022/01/27 02:34:43;;;;;;;39.70;17.20;;;2.30;1.00;;;;;;5071268;28;20454;-61
2022/01/27 02:37:12;;;;;;;37.33;15.40;;;2.30;1.00;;;;;;5071251;28;20455;-60
2022/01/27 02:39:39;;;;;;;40.93;18.60;;;2.40;1.00;;;;;;5071323;28;20848;-59
2022/01/27 02:42:11;;;;;;;36.07;16.53;;;2.40;1.00;;;;;;5071299;28;20529;-61
2022/01/27 02:44:45;;;;;;;35.10;15.83;;;2.40;1.00;;;;;;5071517;28;20530;-60
2022/01/27 02:47:11;;;;;;;36.87;16.83;;;2.40;1.00;;;;;;5071148;28;20534;-61
2022/01/27 02:49:38;;;;;;;38.57;16.30;;;2.40;1.00;;;;;;5071234;28;20450;-61
2022/01/27 02:52:05;;;;;;;35.73;16.23;;;2.40;1.00;;;;;;5071536;28;20470;-61
2022/01/27 02:54:34;;;;;;;34.67;14.90;;;2.50;1.00;;;;;;5071341;28;20520;-61
2022/01/27 02:57:01;;;;;;;39.93;15.97;;;2.40;1.00;;;;;;5071202;28;20536;-61
2022/01/27 02:59:28;;;;;;;35.10;15.47;;;2.50;1.00;;;;;;5071303;28;20945;-60
2022/01/27 03:01:55;;;;;;;32.83;15.57;;;2.40;1.00;;;;;;5071058;28;20478;-62
2022/01/27 03:04:23;;;;;;;37.50;17.93;;;2.40;1.00;;;;;;5071087;28;20505;-61
2022/01/27 03:06:50;;;;;;;39.27;17.03;;;2.40;1.00;;;;;;5073166;28;20442;-61
2022/01/27 03:09:17;;;;;;;38.30;17.07;;;2.40;1.00;;;;;;5074891;28;20500;-61
2022/01/27 03:11:49;;;;;;;29.10;13.07;;;2.40;1.00;;;;;;5074565;28;20471;-61
2022/01/27 03:14:18;;;;;;;35.00;16.63;;;2.40;1.00;;;;;;5075097;28;21148;-61
2022/01/27 03:16:46;;;;;;;36.70;16.20;;;2.40;1.00;;;;;;5075046;28;20547;-61
2022/01/27 03:19:13;;;;;;;31.07;15.77;;;2.50;1.00;;;;;;5077206;28;20447;-61
2022/01/27 03:21:40;;;;;;;33.27;15.57;;;2.50;1.00;;;;;;5074975;28;20989;-61
2022/01/27 03:24:08;;;;;;;32.93;16.23;;;2.50;1.00;;;;;;5075308;28;20450;-61
2022/01/27 03:26:35;;;;;;;31.33;14.30;;;2.50;1.00;;;;;;5074743;28;20443;-61
2022/01/27 03:29:03;;;;;;;38.57;18.97;;;2.50;1.00;;;;;;5074577;28;20450;-60
2022/01/27 03:31:30;;;;;;;38.07;17.53;;;2.50;1.00;;;;;;5074319;28;20553;-61
2022/01/27 03:33:57;;;;;;;34.17;16.53;;;2.50;1.00;;;;;;5074109;28;20455;-61
2022/01/27 03:36:25;;;;;;;41.93;16.53;;;2.50;1.00;;;;;;5074365;28;20479;-61
2022/01/27 03:38:52;;;;;;;40.60;15.83;;;2.60;1.00;;;;;;5074132;28;20979;-61
2022/01/27 03:41:21;;;;;;;37.20;16.50;;;2.60;1.00;;;;;;5074454;28;20540;-61
2022/01/27 03:43:50;;;;;;;35.37;17.37;;;2.60;1.00;;;;;;5074489;28;20482;-61
2022/01/27 03:46:18;;;;;;;29.07;13.67;;;2.60;1.00;;;;;;5074897;28;20443;-61
2022/01/27 03:48:45;;;;;;;35.90;16.43;;;2.70;1.00;;;;;;5074351;28;20448;-61
2022/01/27 03:51:12;;;;;;;44.30;16.13;;;2.60;1.00;;;;;;5074336;28;20536;-61
2022/01/27 03:53:39;;;;;;;31.00;14.97;;;2.60;1.00;;;;;;5074089;28;20521;-61
2022/01/27 03:56:06;;;;;;;37.53;16.93;;;2.60;1.00;;;;;;5073930;28;20478;-61
2022/01/27 03:58:34;;;;;;;28.17;13.83;;;2.60;1.00;;;;;;5073682;28;20443;-61
2022/01/27 04:01:01;;;;;;;38.50;19.53;;;2.60;1.00;;;;;;5074124;28;20554;-61
2022/01/27 04:03:30;;;;;;;35.93;17.57;;;2.50;1.00;;;;;;5073948;28;20550;-63
2022/01/27 04:06:03;;;;;;;36.17;16.60;;;2.50;1.00;;;;;;5074048;28;20496;-61
2022/01/27 04:08:30;;;;;;;34.40;16.60;;;2.60;1.00;;;;;;5073952;28;20443;-61
2022/01/27 04:10:57;;;;;;;31.03;14.33;;;2.60;1.00;;;;;;5073497;28;20479;-61
2022/01/27 04:13:24;;;;;;;29.50;13.03;;;2.60;1.00;;;;;;5073987;28;20447;-61
2022/01/27 04:15:50;;;;;;;35.83;15.70;;;2.60;1.00;;;;;;5073272;28;21042;-61
2022/01/27 04:18:17;;;;;;;34.83;16.50;;;2.70;1.00;;;;;;5073169;28;20979;-61
2022/01/27 04:20:45;;;;;;;31.07;15.10;;;2.70;1.00;;;;;;5073396;28;20500;-61
2022/01/27 04:23:12;;;;;;;33.20;13.80;;;2.70;1.00;;;;;;5073604;28;20585;-61
2022/01/27 04:25:39;;;;;;;37.37;17.73;;;2.70;1.00;;;;;;5072783;28;20443;-61
2022/01/27 04:28:09;;;;;;;30.23;14.87;;;2.70;1.00;;;;;;5074691;28;20454;-60
2022/01/27 04:30:36;;;;;;;34.33;16.13;;;2.70;1.00;;;;;;5075122;28;20851;-61
2022/01/27 04:33:05;;;;;;;39.47;18.80;;;2.80;1.00;;;;;;5075628;28;20505;-61
2022/01/27 04:35:37;;;;;;;28.77;14.57;;;2.80;1.00;;;;;;5077072;28;21152;-60
2022/01/27 04:38:18;;;;;;;32.40;15.17;;;2.80;1.00;;;;;;5077945;28;20519;-60
2022/01/27 04:40:53;;;;;;;26.20;13.23;;;2.80;1.00;;;;;;5074526;28;20528;-60
2022/01/27 04:43:27;;;;;;;36.67;17.27;;;2.80;1.00;;;;;;5078565;28;20451;-60
2022/01/27 04:46:03;;;;;;;28.17;13.17;;;2.90;1.00;;;;;;5077217;28;20443;-61
2022/01/27 04:48:35;;;;;;;34.30;15.33;;;2.90;1.00;;;;;;5072742;28;20878;-61
2022/01/27 04:51:06;;;;;;;32.83;14.10;;;2.90;1.00;;;;;;5073338;28;20474;-60
2022/01/27 04:53:38;;;;;;;32.47;15.07;;;2.90;1.00;;;;;;5072920;28;20447;-60
2022/01/27 04:56:07;;;;;;;30.40;14.43;;;2.90;1.00;;;;;;5072710;28;20514;-59
2022/01/27 04:58:35;;;;;;;29.73;14.47;;;2.90;1.00;;;;;;5072739;28;20451;-61
2022/01/27 05:01:03;;;;;;;31.93;14.67;;;3.00;1.00;;;;;;5072528;28;20470;-61
2022/01/27 05:03:37;;;;;;;30.50;13.93;;;3.00;1.00;;;;;;5072704;28;20451;-61
2022/01/27 05:06:04;;;;;;;31.27;14.60;;;3.10;1.00;;;;;;5072551;28;20450;-61
2022/01/27 05:08:32;;;;;;;27.10;13.27;;;3.10;1.00;;;;;;5072545;28;20450;-61
2022/01/27 05:11:00;;;;;;;29.10;14.17;;;3.20;1.00;;;;;;5072535;28;20524;-61
2022/01/27 05:13:30;;;;;;;29.10;14.10;;;3.30;1.00;;;;;;5072492;28;20456;-61
2022/01/27 05:15:57;;;;;;;28.80;14.63;;;3.30;1.00;;;;;;5072395;28;20574;-61
2022/01/27 05:18:24;;;;;;;34.03;14.90;;;3.40;1.00;;;;;;5072217;28;21010;-60
2022/01/27 05:20:51;;;;;;;26.27;13.17;;;3.40;1.00;;;;;;5072593;28;20471;-61
2022/01/27 05:23:18;;;;;;;27.50;14.77;;;3.30;1.00;;;;;;5072090;28;20443;-60
2022/01/27 05:25:44;;;;;;;34.77;15.30;;;3.40;1.00;;;;;;5072119;28;20451;-60
2022/01/27 05:28:12;;;;;;;23.00;12.37;;;3.40;1.00;;;;;;5072151;28;21020;-61
2022/01/27 05:30:39;;;;;;;24.60;12.43;;;3.40;1.00;;;;;;5071227;28;20235;-61
2022/01/27 05:33:09;;;;;;;26.30;12.07;;;3.40;1.00;;;;;;5072342;28;20528;-61
2022/01/27 05:35:37;;;;;;;29.53;12.87;;;3.40;1.00;;;;;;5072041;28;20440;-61
2022/01/27 05:38:03;;;;;;;27.13;12.87;;;3.40;1.00;;;;;;5072114;28;20474;-61
2022/01/27 05:40:30;;;;;;;31.20;13.70;;;3.50;1.00;;;;;;5071669;28;20235;-59
2022/01/27 05:42:57;;;;;;;27.07;13.93;;;3.50;1.00;;;;;;5059991;28;20259;-60
2022/01/27 05:45:25;;;;;;;31.77;16.80;;;3.50;1.00;;;;;;5071115;28;20255;-61
2022/01/27 05:47:52;;;;;;;31.07;13.20;;;3.50;1.00;;;;;;5071591;28;20674;-61
2022/01/27 05:50:18;;;;;;;31.53;13.87;;;3.50;1.00;;;;;;5071281;28;20208;-61
2022/01/27 05:52:45;;;;;;;34.73;15.20;;;3.50;1.00;;;;;;5072217;28;20633;-61
2022/01/27 05:55:12;;;;;;;27.97;12.67;;;3.50;1.00;;;;;;5071357;28;20209;-61
2022/01/27 05:57:39;;;;;;;26.63;11.73;;;3.50;1.00;;;;;;5071140;28;20287;-60
2022/01/27 06:00:07;;;;;;;31.87;14.73;;;3.50;1.00;;;;;;5071766;28;20454;-60
2022/01/27 06:02:35;;;;;;;26.03;13.43;;;3.50;1.00;;;;;;5071190;28;20278;-60
2022/01/27 06:05:02;;;;;;;25.10;11.80;;;3.60;1.00;;;;;;5071551;28;20443;-61
2022/01/27 06:07:29;;;;;;;29.77;14.33;;;3.60;1.00;;;;;;5070813;28;20220;-60
2022/01/27 06:09:56;;;;;;;27.07;13.40;;;3.60;1.00;;;;;;5071760;28;20217;-60
2022/01/27 06:12:22;;;;;;;29.50;12.07;;;3.60;1.00;;;;;;5071128;28;20319;-61
2022/01/27 06:14:49;;;;;;;25.57;10.53;;;3.60;1.00;;;;;;5071423;28;20212;-60
2022/01/27 06:17:16;;;;;;;23.90;11.93;;;3.70;1.00;;;;;;5071155;28;20864;-60
2022/01/27 06:19:44;;;;;;;27.73;13.10;;;3.70;1.00;;;;;;5071098;28;20447;-60
2022/01/27 06:22:12;;;;;;;27.93;12.27;;;3.70;1.00;;;;;;5071929;28;20316;-59
2022/01/27 06:24:39;;;;;;;31.73;13.33;;;3.70;1.00;;;;;;5071269;28;20297;-60
2022/01/27 06:27:06;;;;;;;26.90;11.63;;;3.70;1.00;;;;;;5071933;28;20887;-60
2022/01/27 06:29:33;;;;;;;25.57;13.90;;;3.70;1.00;;;;;;5071444;28;20214;-61
2022/01/27 06:32:01;;;;;;;33.47;14.60;;;3.60;1.00;;;;;;5070969;28;20221;-60
2022/01/27 06:34:28;;;;;;;26.93;13.90;;;3.60;1.00;;;;;;5070778;28;20218;-62
2022/01/27 06:36:56;;;;;;;29.87;14.37;;;3.50;1.00;;;;;;5071180;28;20233;-61
2022/01/27 06:39:23;;;;;;;26.60;13.97;;;3.50;1.00;;;;;;5071403;28;20212;-61
2022/01/27 06:41:50;;;;;;;29.53;12.33;;;3.50;1.00;;;;;;5073343;28;20474;-62
2022/01/27 06:44:17;;;;;;;29.67;12.70;;;3.60;1.00;;;;;;5074898;28;20212;-62
2022/01/27 06:46:43;;;;;;;24.27;11.20;;;3.70;1.00;;;;;;5074688;28;20714;-62
2022/01/27 06:49:16;;;;;;;26.43;12.57;;;3.70;1.00;;;;;;5074864;28;21026;-60
2022/01/27 06:51:43;;;;;;;26.57;13.30;;;3.70;1.00;;;;;;5074755;28;20569;-62
2022/01/27 06:54:11;;;;;;;24.77;12.53;;;3.70;1.00;;;;;;5075804;28;20454;-61
2022/01/27 06:56:38;;;;;;;30.03;12.70;;;3.70;1.00;;;;;;5075649;28;20228;-63
2022/01/27 06:59:05;;;;;;;30.33;13.87;;;3.80;1.00;;;;;;5074794;28;20206;-59
2022/01/27 07:01:31;;;;;;;22.87;10.93;;;3.90;1.00;;;;;;5075733;28;20228;-59
2022/01/27 07:03:58;;;;;;;26.07;13.00;;;3.90;1.00;;;;;;5074804;28;20205;-61
2022/01/27 07:06:25;;;;;;;31.30;13.27;;;3.90;1.00;;;;;;5075471;28;20201;-62
2022/01/27 07:08:52;;;;;;;26.80;13.83;;;4.00;1.00;;;;;;5074359;28;20817;-62
2022/01/27 07:11:20;;;;;;;25.53;12.33;;;4.10;1.00;;;;;;5074609;28;20223;-61
2022/01/27 07:13:47;;;;;;;32.73;15.93;;;4.00;1.00;;;;;;5074038;28;20213;-61
2022/01/27 07:16:14;;;;;;;26.60;12.33;;;4.10;1.00;;;;;;5073956;28;20583;-61
2022/01/27 07:18:41;;;;;;;26.20;11.73;;;4.10;1.00;;;;;;5074891;28;20214;-61
2022/01/27 07:21:08;;;;;;;25.33;12.00;;;4.10;1.00;;;;;;5074313;28;20230;-61
2022/01/27 07:23:34;;;;;;;23.63;11.63;;;4.20;1.00;;;;;;5074128;28;20208;-62
2022/01/27 07:26:01;;;;;;;26.57;12.67;;;4.20;1.00;;;;;;5074233;28;20206;-62
2022/01/27 07:28:29;;;;;;;22.30;11.30;;;4.30;1.00;;;;;;5074379;28;20203;-61
2022/01/27 07:30:56;;;;;;;21.67;10.47;;;4.30;1.00;;;;;;5073721;28;20234;-62
2022/01/27 07:33:23;;;;;;;29.60;11.97;;;4.30;1.00;;;;;;5073954;28;20222;-61
2022/01/27 07:35:50;;;;;;;25.70;11.30;;;4.30;1.00;;;;;;5074039;28;20218;-60
2022/01/27 07:38:17;;;;;;;26.47;12.57;;;4.30;1.00;;;;;;5073989;28;20717;-60
2022/01/27 07:40:43;;;;;;;22.70;11.23;;;4.30;1.00;;;;;;5073952;28;20220;-61
2022/01/27 07:43:11;;;;;;;25.33;12.70;;;4.30;1.00;;;;;;5073429;28;20210;-60
2022/01/27 07:45:39;;;;;;;27.23;13.57;;;4.30;1.00;;;;;;5073675;28;20719;-61
2022/01/27 07:48:06;;;;;;;26.67;12.40;;;4.30;1.00;;;;;;5074488;28;20213;-60
2022/01/27 07:50:33;;;;;;;23.87;12.50;;;4.30;1.00;;;;;;5076378;28;20208;-60
2022/01/27 07:53:00;;;;;;;26.30;12.70;;;4.30;1.00;;;;;;5072783;28;20267;-67
2022/01/27 07:55:27;;;;;;;27.57;13.27;;;4.20;1.00;;;;;;5076839;28;20244;-60
2022/01/27 07:57:54;;;;;;;29.80;14.13;;;4.20;13.90;;;;;;5075577;28;20251;-60
2022/01/27 08:00:20;;;;;;;27.80;13.90;;;4.20;19.20;;;;;;5074213;28;20212;-60
2022/01/27 08:02:48;;;;;;;22.90;12.13;;;4.30;23.80;;;;;;5075930;28;20714;-61
2022/01/27 08:05:15;;;;;;;30.53;12.53;;;4.30;25.20;;;;;;5079251;28;20214;-61
2022/01/27 08:07:42;;;;;;;26.60;12.37;;;4.30;27.60;;;;;;5075615;28;20206;-61
2022/01/27 08:10:10;;;;;;;28.57;13.73;;;4.30;33.30;;;;;;5073252;28;20214;-61
2022/01/27 08:12:40;;;;;;;29.73;13.40;;;4.30;40.70;;;;;;5072972;28;20233;-62
2022/01/27 08:15:08;;;;;;;22.63;10.50;;;4.30;48.90;;;;;;5073390;28;20236;-61
2022/01/27 08:17:35;;;;;;;30.20;13.90;;;4.40;63.80;;;;;;5073290;28;20257;-59
2022/01/27 08:20:03;;;;;;;28.70;14.13;;;4.30;80.30;;;;;;5073501;28;20211;-61
2022/01/27 08:22:31;;;;;;;28.90;15.57;;;4.30;93.00;;;;;;5072701;28;20232;-62
2022/01/27 08:24:57;;;;;;;27.70;12.60;;;4.30;99.90;;;;;;5072741;28;20210;-60
2022/01/27 08:27:28;;;;;;;31.53;14.57;;;4.30;99.90;;;;;;5072715;28;20660;-59
2022/01/27 08:30:00;;;;;;;32.40;14.43;;;4.30;99.90;;;;;;5073361;28;20205;-61
2022/01/27 08:32:39;;;;;;;34.03;15.40;;;4.20;99.90;;;;;;5076643;28;20274;-61
2022/01/27 08:35:10;;;;;;;31.97;14.30;;;4.20;99.90;;;;;;5073331;28;20203;-62
2022/01/27 08:37:37;;;;;;;33.77;15.57;;;4.20;99.90;;;;;;5074669;28;20217;-61
2022/01/27 08:40:04;;;;;;;28.97;13.80;;;4.20;99.90;;;;;;5073698;28;20219;-63
2022/01/27 08:42:31;;;;;;;34.30;15.20;;;4.20;99.90;;;;;;5074276;28;20232;-62
2022/01/27 08:44:58;;;;;;;33.23;15.63;;;4.20;99.90;;;;;;5073018;28;20631;-60
2022/01/27 08:47:25;;;;;;;37.83;16.23;;;4.20;99.90;;;;;;5072462;28;20198;-60
2022/01/27 08:49:52;;;;;;;33.20;15.27;;;4.20;99.90;;;;;;5072393;28;20203;-60
2022/01/27 08:52:20;;;;;;;32.37;15.47;;;4.30;99.90;;;;;;5072488;28;20736;-58
2022/01/27 08:54:47;;;;;;;34.17;15.60;;;4.20;99.90;;;;;;5072295;28;20203;-60
2022/01/27 08:57:14;;;;;;;36.13;15.17;;;4.20;99.90;;;;;;5072338;28;20229;-60
2022/01/27 08:59:40;;;;;;;34.37;13.50;;;4.30;99.90;;;;;;5072172;28;20646;-62
2022/01/27 09:02:08;;;;;;;32.83;15.00;;;4.30;99.90;;;;;;5072265;28;20234;-62
2022/01/27 09:04:35;;;;;;;28.87;14.13;;;4.30;99.90;;;;;;5071769;28;20240;-67
2022/01/27 09:07:01;;;;;;;32.23;15.97;;;4.40;99.90;;;;;;5071991;28;20205;-61
2022/01/27 09:09:29;;;;;;;34.77;15.93;;;4.50;99.90;;;;;;5071923;28;20245;-68
2022/01/27 09:11:58;;;;;;;33.13;15.57;;;4.40;99.90;;;;;;5071831;28;20231;-63
2022/01/27 09:14:29;;;;;;;36.90;15.23;;;4.40;99.90;;;;;;5071865;28;20301;-61
2022/01/27 09:16:56;;;;;;;36.57;15.00;;;4.40;99.90;;;;;;5071611;28;20204;-61
2022/01/27 09:19:25;;;;;;;34.03;14.70;;;4.40;99.90;;;;;;5071785;28;20721;-62
2022/01/27 09:21:53;;;;;;;29.10;13.03;;;4.50;99.90;;;;;;5071691;28;20303;-63
2022/01/27 09:24:26;;;;;;;21.33;10.83;;;4.40;99.90;;;;;;5071827;28;20210;-59
2022/01/27 09:27:00;;;;;;;23.97;12.00;;;4.50;99.90;;;;;;5072055;28;20205;-60
2022/01/27 09:29:28;;;;;;;23.37;11.00;;;4.50;99.90;;;;;;5071956;28;20212;-60
2022/01/27 09:31:55;;;;;;;25.73;11.60;;;4.50;99.90;;;;;;5071531;28;20300;-59
2022/01/27 09:34:22;;;;;;;30.17;14.07;;;4.50;99.90;;;;;;5071277;28;20222;-59
2022/01/27 09:36:50;;;;;;;33.00;17.20;;;4.50;99.90;;;;;;5071650;28;20213;-60
2022/01/27 09:39:18;;;;;;;35.97;15.90;;;4.50;99.90;;;;;;5071371;28;20253;-59
2022/01/27 09:41:45;;;;;;;30.83;15.23;;;4.60;99.90;;;;;;5071601;28;20234;-64
2022/01/27 09:44:13;;;;;;;31.10;15.70;;;4.50;99.90;;;;;;5070778;28;20217;-65
2022/01/27 09:46:42;;;;;;;29.83;16.27;;;4.60;99.90;;;;;;5071692;28;20580;-65
2022/01/27 09:49:13;;;;;;;33.37;15.13;;;4.60;99.90;;;;;;5071260;28;20204;-61
2022/01/27 09:51:43;;;;;;;29.97;16.53;;;4.60;99.90;;;;;;5071147;28;20736;-61
2022/01/27 09:54:11;;;;;;;31.43;15.47;;;4.60;99.90;;;;;;5071134;28;20584;-61
2022/01/27 09:56:40;;;;;;;32.30;15.77;;;4.70;99.90;;;;;;5070959;28;20205;-61
2022/01/27 09:59:07;;;;;;;35.63;15.67;;;4.70;99.90;;;;;;5071397;28;20231;-63
2022/01/27 10:01:35;;;;;;;30.17;14.40;;;4.70;99.90;;;;;;5071016;28;20225;-62
2022/01/27 10:04:04;;;;;;;26.90;13.87;;;4.70;99.90;;;;;;5071256;28;20206;-64
2022/01/27 10:06:33;;;;;;;22.97;11.57;;;4.70;99.90;;;;;;5071128;28;20293;-64
2022/01/27 10:09:18;;;;;;;32.80;15.00;;;4.70;99.90;;;;;;5071387;28;20757;-63
2022/01/27 10:11:48;;;;;;;26.67;14.07;;;4.70;99.90;;;;;;5071228;28;20237;-64
2022/01/27 10:14:19;;;;;;;27.20;14.70;;;4.70;99.90;;;;;;5070912;28;20669;-62
2022/01/27 10:16:49;;;;;;;27.33;11.77;;;4.70;99.90;;;;;;5073650;28;20205;-63
2022/01/27 10:19:16;;;;;;;27.63;14.13;;;4.80;99.90;;;;;;5075076;28;20230;-63
2022/01/27 10:21:43;;;;;;;26.43;12.23;;;4.80;99.90;;;;;;5075043;28;20408;-67
2022/01/27 10:24:20;;;;;;;26.87;14.13;;;4.80;99.90;;;;;;5074650;28;20255;-66
2022/01/27 10:26:53;;;;;;;27.23;13.07;;;4.80;99.90;;;;;;5075380;28;20206;-63
2022/01/27 10:29:34;;;;;;;26.53;13.23;;;4.80;99.90;;;;;;5075085;28;20223;-64
2022/01/27 10:32:09;;;;;;;23.73;12.57;;;4.80;99.90;;;;;;5075063;28;20256;-63
2022/01/27 10:34:53;;;;;;;21.87;10.83;;;4.90;99.90;;;;;;5074533;28;20232;-63
2022/01/27 10:37:20;;;;;;;20.47;11.43;;;4.80;99.90;;;;;;5075695;28;20243;-63
2022/01/27 10:39:48;;;;;;;25.53;12.17;;;4.80;99.90;;;;;;5075110;28;20208;-63
2022/01/27 10:42:15;;;;;;;28.97;13.03;;;4.90;99.90;;;;;;5074979;28;20238;-61
2022/01/27 10:44:46;;;;;;;26.03;12.83;;;4.90;99.90;;;;;;5075702;28;20223;-62
2022/01/27 10:47:18;;;;;;;23.70;12.67;;;4.90;99.90;;;;;;5075891;28;20293;-65
2022/01/27 10:49:49;;;;;;;27.83;12.90;;;4.90;99.90;;;;;;5075733;28;20582;-59
2022/01/27 10:52:21;;;;;;;24.20;13.63;;;5.00;99.90;;;;;;5075606;28;20721;-64
2022/01/27 10:54:56;;;;;;;25.80;13.17;;;5.00;99.90;;;;;;5074448;28;20607;-66
2022/01/27 10:57:25;;;;;;;22.87;13.50;;;5.10;99.90;;;;;;5073993;28;20735;-64
2022/01/27 11:00:07;;;;;;;26.30;13.23;;;5.10;99.90;;;;;;5074580;28;20237;-62
2022/01/27 11:02:48;;;;;;;25.10;13.87;;;5.20;99.90;;;;;;5074309;28;20600;-65
2022/01/27 11:05:19;;;;;;;26.63;14.10;;;5.20;99.90;;;;;;5074795;28;20313;-63
2022/01/27 11:07:46;;;;;;;30.70;14.33;;;5.20;99.90;;;;;;5074333;28;20193;-65
2022/01/27 11:10:14;;;;;;;26.00;13.60;;;5.20;99.90;;;;;;5074917;28;20209;-63
2022/01/27 11:12:42;;;;;;;28.20;14.87;;;5.20;99.90;;;;;;5074607;28;20224;-64
2022/01/27 11:15:10;;;;;;;24.20;12.33;;;5.20;99.90;;;;;;5074869;28;20620;-57
2022/01/27 11:17:40;;;;;;;29.13;14.97;;;5.20;99.90;;;;;;5074689;28;20210;-58
2022/01/27 11:20:27;;;;;;;23.73;13.77;;;5.20;99.90;;;;;;5075467;28;20287;-62
2022/01/27 11:23:22;;;;;;;27.50;13.97;;;5.20;99.90;;;;;;5075986;28;20290;-60
2022/01/27 11:25:52;;;;;;;17.87;9.67;;;5.20;99.90;;;;;;5074048;28;20212;-60
2022/01/27 11:28:20;;;;;;;25.30;13.10;;;5.20;99.90;;;;;;5076276;28;20204;-62
2022/01/27 11:30:58;;;;;;;27.63;13.73;;;5.20;99.90;;;;;;5078723;28;20244;-64
2022/01/27 11:33:32;;;;;;;21.40;11.97;;;5.30;99.90;;;;;;5079896;28;20216;-61
2022/01/27 11:36:08;;;;;;;28.93;13.70;;;5.30;99.90;;;;;;5089914;28;20239;-62
2022/01/27 11:38:35;;;;;;;21.90;13.53;;;5.30;99.90;;;;;;5092588;28;20229;-61
2022/01/27 11:41:02;;;;;;;28.57;14.43;;;5.30;99.90;;;;;;5079187;28;20228;-60
2022/01/27 11:43:33;;;;;;;25.67;15.00;;;5.40;99.90;;;;;;5073534;28;20202;-60
2022/01/27 11:46:12;;;;;;;26.97;12.97;;;5.40;99.90;;;;;;5073243;28;20213;-62
2022/01/27 11:48:41;;;;;;;22.47;14.33;;;5.40;99.90;;;;;;5073800;28;20269;-62
2022/01/27 11:51:13;;;;;;;24.93;13.80;;;5.50;99.90;;;;;;5073348;28;20224;-62
2022/01/27 11:53:42;;;;;;;26.73;15.37;;;5.50;99.90;;;;;;5072983;28;20213;-62
2022/01/27 11:56:15;;;;;;;28.03;15.97;;;5.50;99.90;;;;;;5073325;28;20207;-60
2022/01/27 11:58:45;;;;;;;19.83;12.00;;;5.50;99.90;;;;;;5073306;28;20699;-62
2022/01/27 12:01:21;;;;;;;21.70;11.57;;;5.60;99.90;;;;;;5074097;28;20232;-61
2022/01/27 12:04:15;;;;;;;23.97;14.10;;;5.60;99.90;;;;;;5072504;28;20671;-62
2022/01/27 12:06:43;;;;;;;21.67;13.53;;;5.60;99.90;;;;;;5073419;28;20303;-62
2022/01/27 12:09:30;;;;;;;23.23;13.50;;;5.60;99.90;;;;;;5073003;28;20216;-63
2022/01/27 12:11:59;;;;;;;23.10;13.10;;;5.60;99.90;;;;;;5072766;28;20232;-61
2022/01/27 12:14:30;;;;;;;25.13;14.83;;;5.70;99.90;;;;;;5072431;28;20216;-60
2022/01/27 12:17:22;;;;;;;25.87;14.03;;;5.60;99.90;;;;;;5073134;28;20241;-63
2022/01/27 12:19:52;;;;;;;24.40;13.53;;;5.70;99.90;;;;;;5072580;28;20594;-63
2022/01/27 12:22:19;;;;;;;22.07;12.67;;;5.70;99.90;;;;;;5073092;28;20282;-62
2022/01/27 12:24:54;;;;;;;28.23;14.30;;;5.70;99.90;;;;;;5073336;28;20209;-61
2022/01/27 12:27:23;;;;;;;23.73;13.23;;;5.70;99.90;;;;;;5073828;28;20212;-63
2022/01/27 12:29:51;;;;;;;25.47;13.23;;;5.70;99.90;;;;;;5075035;28;20201;-60
2022/01/27 12:32:23;;;;;;;22.23;13.87;;;5.70;99.90;;;;;;5073956;28;20236;-62
2022/01/27 12:34:53;;;;;;;20.77;13.57;;;5.70;99.90;;;;;;5072210;28;20217;-62
2022/01/27 12:37:23;;;;;;;23.90;13.07;;;5.70;99.90;;;;;;5072030;28;20655;-61
2022/01/27 12:39:52;;;;;;;21.67;11.67;;;5.80;99.90;;;;;;5072112;28;20231;-63
2022/01/27 12:42:19;;;;;;;21.53;13.90;;;5.80;99.90;;;;;;5072437;28;20225;-61
2022/01/27 12:44:56;;;;;;;25.27;13.83;;;5.80;99.90;;;;;;5072331;28;20211;-61
2022/01/27 12:47:24;;;;;;;25.73;13.37;;;5.80;99.90;;;;;;5072058;28;20240;-64
2022/01/27 12:50:02;;;;;;;23.63;13.67;;;5.80;99.90;;;;;;5072691;28;20293;-63
2022/01/27 12:52:31;;;;;;;24.30;13.77;;;5.80;99.90;;;;;;5072005;28;20350;-66
2022/01/27 12:54:58;;;;;;;22.53;14.00;;;5.80;99.90;;;;;;5072201;28;20214;-68
2022/01/27 12:57:26;;;;;;;25.20;15.13;;;5.90;99.90;;;;;;5072139;28;20305;-69
2022/01/27 12:59:54;;;;;;;22.60;14.77;;;6.00;99.90;;;;;;5072150;28;20225;-62
2022/01/27 13:02:22;;;;;;;25.00;14.13;;;6.00;99.90;;;;;;5072048;28;20228;-62
2022/01/27 13:04:53;;;;;;;29.33;16.13;;;6.00;99.90;;;;;;5071779;28;20220;-61
2022/01/27 13:07:22;;;;;;;27.33;16.70;;;6.00;99.90;;;;;;5072095;28;20204;-60
2022/01/27 13:09:59;;;;;;;29.10;16.47;;;6.00;99.90;;;;;;5072130;28;20247;-65
2022/01/27 13:12:31;;;;;;;31.33;16.70;;;6.00;99.90;;;;;;5071854;28;20229;-58
2022/01/27 13:15:05;;;;;;;23.00;13.53;;;6.00;99.90;;;;;;5071675;28;20205;-63
2022/01/27 13:17:42;;;;;;;29.10;16.30;;;6.00;99.90;;;;;;5072323;28;20215;-61
2022/01/27 13:20:23;;;;;;;26.73;15.63;;;6.00;99.90;;;;;;5072050;28;20263;-59
2022/01/27 13:22:55;;;;;;;26.63;16.20;;;6.00;99.90;;;;;;5071208;28;20717;-63